createdAt,value
2018-01-28T00:00:11.683Z,79.80
2018-01-28T00:02:39.119Z,79.70
2018-01-28T00:05:06.564Z,79.50
2018-01-28T00:07:34.018Z,79.70
2018-01-28T00:10:01.466Z,79.50
2018-01-28T00:12:28.898Z,79.50
2018-01-28T00:14:56.342Z,79.50
2018-01-28T00:17:23.781Z,79.00
2018-01-28T00:19:51.226Z,79.10
2018-01-28T00:22:18.673Z,79.30
2018-01-28T00:24:46.131Z,79.30
2018-01-28T00:27:13.555Z,79.40
2018-01-28T00:29:41.009Z,79.30
2018-01-28T00:32:09.226Z,79.60
2018-01-28T00:34:36.678Z,79.60
2018-01-28T00:37:04.103Z,79.60
2018-01-28T00:39:32.314Z,79.80
2018-01-28T00:41:59.765Z,79.80
2018-01-28T00:44:27.218Z,79.80
2018-01-28T00:46:54.651Z,79.90
2018-01-28T00:49:22.868Z,80.00
2018-01-28T00:51:50.334Z,79.90
2018-01-28T00:54:18.552Z,80.10
2018-01-28T00:56:46.759Z,80.20
2018-01-28T00:59:14.192Z,80.20
2018-01-28T01:01:42.399Z,80.30
2018-01-28T01:04:09.828Z,80.30
2018-01-28T01:06:37.289Z,80.40
2018-01-28T01:09:04.720Z,80.40
2018-01-28T01:11:32.923Z,80.60
2018-01-28T01:14:00.360Z,80.50
2018-01-28T01:16:28.567Z,80.60
2018-01-28T01:18:56.008Z,80.50
2018-01-28T01:21:23.442Z,80.60
2018-01-28T01:23:51.661Z,80.80
2018-01-28T01:26:19.100Z,80.80
2018-01-28T01:28:46.541Z,80.80
2018-01-28T01:31:14.749Z,81.00
2018-01-28T01:33:42.181Z,81.00
2018-01-28T01:36:09.621Z,81.20
2018-01-28T01:38:37.826Z,81.40
2018-01-28T01:41:05.259Z,81.30
2018-01-28T01:43:33.466Z,81.80
2018-01-28T01:46:00.941Z,81.80
2018-01-28T01:48:28.380Z,81.60
2018-01-28T01:50:55.826Z,81.60
2018-01-28T01:53:23.263Z,81.60
2018-01-28T01:55:51.473Z,81.60
2018-01-28T01:58:18.910Z,81.60
2018-01-28T02:00:46.353Z,81.60
2018-01-28T02:03:14.578Z,81.90
2018-01-28T02:05:42.044Z,81.90
2018-01-28T02:08:09.485Z,82.00
2018-01-28T02:10:36.934Z,82.20
2018-01-28T02:13:04.370Z,82.20
2018-01-28T02:15:31.800Z,82.20
2018-01-28T02:17:59.996Z,82.50
2018-01-28T02:20:27.437Z,82.50
2018-01-28T02:22:55.641Z,82.30
2018-01-28T02:25:23.100Z,82.30
2018-01-28T02:27:50.525Z,82.40
2018-01-28T02:30:18.742Z,82.50
2018-01-28T02:32:46.186Z,82.40
2018-01-28T02:35:13.640Z,82.50
2018-01-28T02:37:41.075Z,82.50
2018-01-28T02:40:09.286Z,82.60
2018-01-28T02:42:36.725Z,82.50
2018-01-28T02:45:04.158Z,82.50
2018-01-28T02:47:32.371Z,82.80
2018-01-28T02:49:59.803Z,82.80
2018-01-28T02:52:28.018Z,82.70
2018-01-28T02:54:55.465Z,82.70
2018-01-28T02:57:22.898Z,82.70
2018-01-28T02:59:50.329Z,82.70
2018-01-28T03:02:17.775Z,82.70
2018-01-28T03:04:45.218Z,82.90
2018-01-28T03:07:12.671Z,82.90
2018-01-28T03:09:40.094Z,83.20
2018-01-28T03:12:07.548Z,82.90
2018-01-28T03:14:34.978Z,82.90
2018-01-28T03:17:03.198Z,83.20
2018-01-28T03:19:30.636Z,83.20
2018-01-28T03:21:58.083Z,83.30
2018-01-28T03:24:25.513Z,83.10
2018-01-28T03:26:52.957Z,82.90
2018-01-28T03:29:20.391Z,82.90
2018-01-28T03:31:47.843Z,83.00
2018-01-28T03:34:15.282Z,83.00
2018-01-28T03:36:42.717Z,82.90
2018-01-28T03:39:10.925Z,82.80
2018-01-28T03:41:38.373Z,82.80
2018-01-28T03:44:05.808Z,82.70
2018-01-28T03:46:34.020Z,82.70
2018-01-28T03:49:01.474Z,82.70
2018-01-28T03:51:28.928Z,82.70
2018-01-28T03:53:56.353Z,82.80
2018-01-28T03:56:24.565Z,82.70
2018-01-28T03:58:52.003Z,82.70
2018-01-28T04:01:19.448Z,82.70
2018-01-28T04:03:47.652Z,82.80
2018-01-28T04:06:15.093Z,82.80
2018-01-28T04:08:42.929Z,82.90
2018-01-28T04:11:11.134Z,82.90
2018-01-28T04:13:38.563Z,83.00
2018-01-28T04:16:06.766Z,83.00
2018-01-28T04:18:34.196Z,83.00
2018-01-28T04:21:02.397Z,83.20
2018-01-28T04:23:29.848Z,83.10
2018-01-28T04:25:57.275Z,83.30
2018-01-28T04:28:24.719Z,83.30
2018-01-28T04:30:52.159Z,83.60
2018-01-28T04:33:19.606Z,83.60
2018-01-28T04:35:47.037Z,83.80
2018-01-28T04:38:14.488Z,83.80
2018-01-28T04:40:41.917Z,83.80
2018-01-28T04:43:09.362Z,84.10
2018-01-28T04:45:36.800Z,84.10
2018-01-28T04:48:04.239Z,84.00
2018-01-28T04:50:31.671Z,84.00
2018-01-28T04:52:59.113Z,84.10
2018-01-28T04:55:27.307Z,84.10
2018-01-28T04:57:54.802Z,84.10
2018-01-28T05:00:22.955Z,84.10
2018-01-28T05:02:50.390Z,84.10
2018-01-28T05:05:18.601Z,84.20
2018-01-28T05:07:46.049Z,84.20
2018-01-28T05:10:13.486Z,84.30
2018-01-28T05:12:40.935Z,84.30
2018-01-28T05:15:08.375Z,84.40
2018-01-28T05:17:36.591Z,84.50
2018-01-28T05:20:04.017Z,84.40
2018-01-28T05:22:32.229Z,84.50
2018-01-28T05:24:59.664Z,84.50
2018-01-28T05:27:27.122Z,84.50
2018-01-28T05:29:54.558Z,84.60
2018-01-28T05:32:22.762Z,84.70
2018-01-28T05:37:24.858Z,85.00
2018-01-28T05:39:52.311Z,85.00
2018-01-28T05:42:19.741Z,85.00
2018-01-28T05:44:47.948Z,85.00
2018-01-28T05:47:15.382Z,84.90
2018-01-28T05:49:42.873Z,85.60
2018-01-28T05:52:10.305Z,84.90
2018-01-28T05:57:11.594Z,85.00
2018-01-28T05:59:39.036Z,85.00
2018-01-28T06:02:06.478Z,85.10
2018-01-28T06:04:33.922Z,85.10
2018-01-28T06:07:01.349Z,85.10
2018-01-28T06:09:28.798Z,85.10
2018-01-28T06:11:56.237Z,85.10
2018-01-28T06:14:23.682Z,85.30
2018-01-28T06:16:51.126Z,85.20
2018-01-28T06:19:18.583Z,85.30
2018-01-28T06:21:46.018Z,85.30
2018-01-28T06:24:14.226Z,85.40
2018-01-28T06:26:41.670Z,85.40
2018-01-28T06:29:09.126Z,85.40
2018-01-28T06:31:36.563Z,85.40
2018-01-28T06:34:04.775Z,85.60
2018-01-28T06:36:32.210Z,85.50
2018-01-28T06:38:59.653Z,85.60
2018-01-28T06:41:27.850Z,85.70
2018-01-28T06:43:55.296Z,85.70
2018-01-28T06:46:22.739Z,85.70
2018-01-28T06:48:50.998Z,85.70
2018-01-28T06:51:18.393Z,85.70
2018-01-28T06:53:46.606Z,85.70
2018-01-28T06:56:14.041Z,85.70
2018-01-28T06:58:41.494Z,85.90
2018-01-28T07:01:08.925Z,85.80
2018-01-28T07:03:36.362Z,85.90
2018-01-28T07:06:04.571Z,85.80
2018-01-28T07:08:32.005Z,85.80
2018-01-28T07:11:00.226Z,86.00
2018-01-28T07:13:27.659Z,85.90
2018-01-28T07:15:55.105Z,85.90
2018-01-28T07:18:22.541Z,85.90
2018-01-28T07:20:50.745Z,86.10
2018-01-28T07:23:18.185Z,86.00
2018-01-28T07:25:46.398Z,86.00
2018-01-28T07:28:13.830Z,86.00
2018-01-28T07:30:41.270Z,86.00
2018-01-28T07:33:09.461Z,86.20
2018-01-28T07:35:36.910Z,86.20
2018-01-28T07:38:05.108Z,86.20
2018-01-28T07:40:32.549Z,86.20
2018-01-28T07:42:59.978Z,86.10
2018-01-28T07:45:27.413Z,86.20
2018-01-28T07:47:54.852Z,86.20
2018-01-28T07:50:22.296Z,86.20
2018-01-28T07:52:49.757Z,86.30
2018-01-28T07:55:17.202Z,86.20
2018-01-28T07:57:44.891Z,86.20
2018-01-28T08:00:12.341Z,86.20
2018-01-28T08:02:39.777Z,86.20
2018-01-28T08:05:07.221Z,86.20
2018-01-28T08:07:34.650Z,86.30
2018-01-28T08:10:02.103Z,86.20
2018-01-28T08:12:30.335Z,86.30
2018-01-28T08:14:57.794Z,86.30
2018-01-28T08:17:25.230Z,86.30
2018-01-28T08:19:52.685Z,86.30
2018-01-28T08:22:20.122Z,86.20
2018-01-28T08:24:48.333Z,86.20
2018-01-28T08:27:18.610Z,86.20
2018-01-28T08:29:46.252Z,86.20
2018-01-28T08:32:13.701Z,86.30
2018-01-28T08:34:41.293Z,86.30
2018-01-28T08:39:42.574Z,86.20
2018-01-28T08:42:10.763Z,86.20
2018-01-28T08:44:38.238Z,86.20
2018-01-28T08:47:05.745Z,86.20
2018-01-28T08:49:33.175Z,86.30
2018-01-28T08:52:00.620Z,87.10
2018-01-28T08:54:28.067Z,86.50
2018-01-28T08:56:55.515Z,86.40
2018-01-28T08:59:23.846Z,86.20
2018-01-28T09:01:51.324Z,86.40
2018-01-28T09:04:18.735Z,86.20
2018-01-28T09:06:46.195Z,86.20
2018-01-28T09:09:13.632Z,86.10
2018-01-28T09:11:41.078Z,86.20
2018-01-28T09:14:08.535Z,86.20
2018-01-28T09:16:35.974Z,86.10
2018-01-28T09:19:03.409Z,86.10
2018-01-28T09:21:30.856Z,86.10
2018-01-28T09:23:58.285Z,86.00
2018-01-28T09:26:25.728Z,86.00
2018-01-28T09:28:53.184Z,86.00
2018-01-28T09:31:20.610Z,86.10
2018-01-28T09:33:48.820Z,86.00
2018-01-28T09:36:16.268Z,86.00
2018-01-28T09:38:43.697Z,85.90
2018-01-28T09:41:11.908Z,86.00
2018-01-28T09:43:39.523Z,86.00
2018-01-28T09:46:07.118Z,85.80
2018-01-28T09:48:34.633Z,85.80
2018-01-28T09:51:02.066Z,85.80
2018-01-28T09:53:29.736Z,85.70
2018-01-28T09:55:57.222Z,85.70
2018-01-28T09:58:25.651Z,85.70
2018-01-28T10:00:53.104Z,85.60
2018-01-28T10:03:20.538Z,85.60
2018-01-28T10:05:48.001Z,85.50
2018-01-28T10:08:15.450Z,85.50
2018-01-28T10:10:42.890Z,85.60
2018-01-28T10:13:11.089Z,85.40
2018-01-28T10:15:38.530Z,85.40
2018-01-28T10:18:06.756Z,85.40
2018-01-28T10:20:34.185Z,85.30
2018-01-28T10:23:02.703Z,85.30
2018-01-28T10:25:30.442Z,85.40
2018-01-28T10:27:58.099Z,85.30
2018-01-28T10:30:25.565Z,85.20
2018-01-28T10:32:53.131Z,85.20
2018-01-28T10:35:20.646Z,85.20
2018-01-28T10:37:48.225Z,85.10
2018-01-28T10:40:16.623Z,85.20
2018-01-28T10:42:44.448Z,85.10
2018-01-28T10:45:13.229Z,85.10
2018-01-28T10:47:40.753Z,85.00
2018-01-28T10:50:08.165Z,84.90
2018-01-28T10:52:35.634Z,84.80
2018-01-28T10:55:03.065Z,84.80
2018-01-28T10:57:31.302Z,85.00
2018-01-28T10:59:58.769Z,85.00
2018-01-28T11:02:26.210Z,84.90
2018-01-28T11:04:53.676Z,84.90
2018-01-28T11:07:21.117Z,84.90
2018-01-28T11:09:48.585Z,84.80
2018-01-28T11:12:16.037Z,84.80
2018-01-28T11:14:43.497Z,84.80
2018-01-28T11:17:10.944Z,84.80
2018-01-28T11:19:38.399Z,84.70
2018-01-28T11:22:05.842Z,84.90
2018-01-28T11:24:33.286Z,84.90
2018-01-28T11:27:00.722Z,84.90
2018-01-28T11:29:29.680Z,84.90
2018-01-28T11:31:57.119Z,84.90
2018-01-28T11:34:24.815Z,84.80
2018-01-28T11:36:52.468Z,84.80
2018-01-28T11:39:20.190Z,84.80
2018-01-28T11:41:47.709Z,84.80
2018-01-28T11:44:15.181Z,84.50
2018-01-28T11:46:42.811Z,84.50
2018-01-28T11:49:10.437Z,84.50
2018-01-28T11:51:37.993Z,84.50
2018-01-28T11:54:05.486Z,84.50
2018-01-28T11:56:33.112Z,84.30
2018-01-28T11:59:00.554Z,84.20
2018-01-28T12:01:28.743Z,84.20
2018-01-28T12:03:56.185Z,84.20
2018-01-28T12:06:23.621Z,84.20
2018-01-28T12:08:51.834Z,84.30
2018-01-28T12:11:19.271Z,84.20
2018-01-28T12:13:47.482Z,83.90
2018-01-28T12:16:14.918Z,83.90
2018-01-28T12:18:42.390Z,84.00
2018-01-28T12:21:09.826Z,84.10
2018-01-28T12:23:37.265Z,84.10
2018-01-28T12:26:05.466Z,84.10
2018-01-28T12:28:37.200Z,84.10
2018-01-28T12:31:05.684Z,83.90
2018-01-28T12:33:33.143Z,83.90
2018-01-28T12:36:01.362Z,83.80
2018-01-28T12:38:28.806Z,83.80
2018-01-28T12:40:56.295Z,83.90
2018-01-28T12:43:23.736Z,83.90
2018-01-28T12:45:52.308Z,83.90
2018-01-28T12:48:20.167Z,83.90
2018-01-28T12:50:47.607Z,83.90
2018-01-28T12:53:15.037Z,84.10
2018-01-28T12:55:42.477Z,84.10
2018-01-28T12:58:10.116Z,84.10
2018-01-28T13:00:37.562Z,84.20
2018-01-28T13:03:04.989Z,84.10
2018-01-28T13:05:32.438Z,84.10
2018-01-28T13:08:00.650Z,84.10
2018-01-28T13:10:28.091Z,84.10
2018-01-28T13:12:55.525Z,84.20
2018-01-28T13:15:23.746Z,84.30
2018-01-28T13:17:51.433Z,84.30
2018-01-28T13:20:18.879Z,84.20
2018-01-28T13:22:46.317Z,84.30
2018-01-28T13:25:13.782Z,84.10
2018-01-28T13:27:41.210Z,84.20
2018-01-28T13:30:08.654Z,84.80
2018-01-28T13:32:36.859Z,84.20
2018-01-28T13:35:04.297Z,84.10
2018-01-28T13:37:31.739Z,84.10
2018-01-28T13:39:59.956Z,84.20
2018-01-28T13:42:27.433Z,84.20
2018-01-28T13:44:54.878Z,84.20
2018-01-28T13:47:22.332Z,84.20
2018-01-28T13:49:49.763Z,84.10
2018-01-28T13:52:17.217Z,84.20
2018-01-28T13:54:44.653Z,84.30
2018-01-28T13:57:12.875Z,84.20
2018-01-28T13:59:40.333Z,84.20
2018-01-28T14:02:07.775Z,84.10
2018-01-28T14:04:35.210Z,84.10
2018-01-28T14:07:03.456Z,84.00
2018-01-28T14:09:30.926Z,84.00
2018-01-28T14:11:58.359Z,83.90
2018-01-28T14:14:25.797Z,84.00
2018-01-28T14:16:53.262Z,84.00
2018-01-28T14:19:20.709Z,83.90
2018-01-28T14:21:48.161Z,84.70
2018-01-28T14:24:15.595Z,84.00
2018-01-28T14:26:43.033Z,84.00
2018-01-28T14:29:11.233Z,82.70
2018-01-28T14:31:38.709Z,82.70
2018-01-28T14:34:06.154Z,82.30
2018-01-28T14:36:33.592Z,82.10
2018-01-28T14:39:01.035Z,82.20
2018-01-28T14:41:29.249Z,82.90
2018-01-28T14:43:56.707Z,82.90
2018-01-28T14:46:24.176Z,82.90
2018-01-28T14:48:51.690Z,83.10
2018-01-28T14:51:19.903Z,83.30
2018-01-28T14:53:47.356Z,83.30
2018-01-28T14:56:14.785Z,83.50
2018-01-28T14:58:43.000Z,83.60
2018-01-28T15:01:10.530Z,83.60
2018-01-28T15:03:38.733Z,83.80
2018-01-28T15:06:06.179Z,83.80
2018-01-28T15:08:33.612Z,83.10
2018-01-28T15:11:01.826Z,83.10
2018-01-28T15:13:30.102Z,83.50
2018-01-28T15:15:58.322Z,83.50
2018-01-28T15:18:26.526Z,82.30
2018-01-28T15:20:53.973Z,82.60
2018-01-28T15:23:22.186Z,81.80
2018-01-28T15:25:49.674Z,82.80
2018-01-28T15:28:17.122Z,81.60
2018-01-28T15:30:44.569Z,79.80
2018-01-28T15:33:12.025Z,80.20
2018-01-28T15:35:39.434Z,80.30
2018-01-28T15:38:06.893Z,79.00
2018-01-28T15:40:34.341Z,78.30
2018-01-28T15:43:01.802Z,79.60
2018-01-28T15:45:30.030Z,78.90
2018-01-28T15:47:57.491Z,78.90
2018-01-28T15:50:24.925Z,79.90
2018-01-28T15:52:52.429Z,79.60
2018-01-28T15:55:20.654Z,79.10
2018-01-28T15:57:48.099Z,79.00
2018-01-28T16:00:15.559Z,78.90
2018-01-28T16:02:43.014Z,79.30
2018-01-28T16:05:10.465Z,80.10
2018-01-28T16:07:37.926Z,80.00
2018-01-28T16:10:05.367Z,80.60
2018-01-28T16:12:33.588Z,81.10
2018-01-28T16:15:01.032Z,81.00
2018-01-28T16:17:28.499Z,79.70
2018-01-28T16:19:55.928Z,79.70
2018-01-28T16:22:23.367Z,80.30
2018-01-28T16:24:51.583Z,80.80
2018-01-28T16:27:19.035Z,80.80
2018-01-28T16:29:46.483Z,80.70
2018-01-28T16:32:13.927Z,80.40
2018-01-28T16:34:41.375Z,80.50
2018-01-28T16:37:09.595Z,80.50
2018-01-28T16:39:37.070Z,80.50
2018-01-28T16:42:04.509Z,80.40
2018-01-28T16:44:31.935Z,80.50
2018-01-28T16:46:59.373Z,80.30
2018-01-28T16:49:27.573Z,80.20
2018-01-28T16:51:55.173Z,80.30
2018-01-28T16:54:22.793Z,80.40
2018-01-28T16:56:50.224Z,80.60
2018-01-28T16:59:18.451Z,80.50
2018-01-28T17:01:45.916Z,80.40
2018-01-28T17:04:13.365Z,80.40
2018-01-28T17:06:40.804Z,80.60
2018-01-28T17:09:08.245Z,80.80
2018-01-28T17:11:35.694Z,80.80
2018-01-28T17:14:03.906Z,81.00
2018-01-28T17:16:31.341Z,81.00
2018-01-28T17:18:58.780Z,81.10
2018-01-28T17:21:26.978Z,81.10
2018-01-28T17:23:54.458Z,81.10
2018-01-28T17:26:22.743Z,81.20
2018-01-28T17:28:50.185Z,81.10
2018-01-28T17:31:17.629Z,81.40
2018-01-28T17:33:45.077Z,81.20
2018-01-28T17:36:12.512Z,81.40
2018-01-28T17:38:40.727Z,81.60
2018-01-28T17:41:08.191Z,81.20
2018-01-28T17:43:35.631Z,81.30
2018-01-28T17:46:03.054Z,81.30
2018-01-28T17:48:31.268Z,81.40
2018-01-28T17:50:58.699Z,81.40
2018-01-28T17:53:26.911Z,81.50
2018-01-28T17:55:54.357Z,81.40
2018-01-28T17:58:21.823Z,81.60
2018-01-28T18:00:49.321Z,81.60
2018-01-28T18:03:16.777Z,81.60
2018-01-28T18:05:44.232Z,81.70
2018-01-28T18:08:11.814Z,81.60
2018-01-28T18:10:40.024Z,81.60
2018-01-28T18:13:07.471Z,81.50
2018-01-28T18:15:34.916Z,81.60
2018-01-28T18:18:03.107Z,81.50
2018-01-28T18:20:30.574Z,81.50
2018-01-28T18:22:58.026Z,81.50
2018-01-28T18:25:25.477Z,81.50
2018-01-28T18:27:52.928Z,81.40
2018-01-28T18:30:20.406Z,81.50
2018-01-28T18:32:47.843Z,81.50
2018-01-28T18:35:15.301Z,81.60
2018-01-28T18:37:42.778Z,81.60
2018-01-28T18:40:10.247Z,81.70
2018-01-28T18:42:37.680Z,81.70
2018-01-28T18:45:05.144Z,81.80
2018-01-28T18:47:32.585Z,81.80
2018-01-28T18:50:00.044Z,81.90
2018-01-28T18:52:27.710Z,81.80
2018-01-28T18:54:55.153Z,81.90
2018-01-28T18:57:22.689Z,81.90
2018-01-28T18:59:50.130Z,81.90
2018-01-28T19:02:17.565Z,81.90
2018-01-28T19:04:45.007Z,82.00
2018-01-28T19:07:12.464Z,81.90
2018-01-28T19:09:39.932Z,81.90
2018-01-28T19:12:07.393Z,82.00
2018-01-28T19:14:34.849Z,82.00
2018-01-28T19:17:02.286Z,82.00
2018-01-28T19:19:29.732Z,82.10
2018-01-28T19:21:57.355Z,82.10
2018-01-28T19:24:24.808Z,82.20
2018-01-28T19:26:52.262Z,82.20
2018-01-28T19:29:19.712Z,82.10
2018-01-28T19:31:47.167Z,82.20
2018-01-28T19:34:14.752Z,82.20
2018-01-28T19:36:42.189Z,82.20
2018-01-28T19:39:09.711Z,82.40
2018-01-28T19:41:37.151Z,82.50
2018-01-28T19:44:04.638Z,82.50
2018-01-28T19:46:32.163Z,82.50
2018-01-28T19:49:00.371Z,82.50
2018-01-28T19:51:27.808Z,82.50
2018-01-28T19:53:56.062Z,82.40
2018-01-28T19:56:24.308Z,82.50
2018-01-28T19:58:51.781Z,82.50
2018-01-28T20:01:19.258Z,81.40
2018-01-28T20:03:48.084Z,81.40
2018-01-28T20:06:15.582Z,81.30
2018-01-28T20:08:43.034Z,81.40
2018-01-28T20:11:10.519Z,81.30
2018-01-28T20:13:38.933Z,81.40
2018-01-28T20:16:06.378Z,81.40
2018-01-28T20:18:33.822Z,81.40
2018-01-28T20:21:02.034Z,81.60
2018-01-28T20:23:29.476Z,82.20
2018-01-28T20:25:56.962Z,81.40
2018-01-28T20:28:24.417Z,81.40
2018-01-28T20:30:51.885Z,81.50
2018-01-28T20:33:19.321Z,82.00
2018-01-28T20:35:46.777Z,81.50
2018-01-28T20:38:14.586Z,81.60
2018-01-28T20:40:42.101Z,81.50
2018-01-28T20:43:09.544Z,81.60
2018-01-28T20:45:37.021Z,81.60
2018-01-28T20:48:04.592Z,81.60
2018-01-28T20:50:32.122Z,81.70
2018-01-28T20:52:59.565Z,81.70
2018-01-28T20:55:27.018Z,81.70
2018-01-28T20:57:54.470Z,81.70
2018-01-28T21:00:22.713Z,81.70
2018-01-28T21:02:51.162Z,81.70
2018-01-28T21:05:18.643Z,82.70
2018-01-28T21:07:46.085Z,81.80
2018-01-28T21:10:13.542Z,81.70
2018-01-28T21:12:41.924Z,82.40
2018-01-28T21:15:09.356Z,82.80
2018-01-28T21:17:36.809Z,81.80
2018-01-28T21:20:04.283Z,81.80
2018-01-28T21:22:31.717Z,81.80
2018-01-28T21:24:59.161Z,81.80
2018-01-28T21:27:27.413Z,82.90
2018-01-28T21:29:54.853Z,82.90
2018-01-28T21:32:22.302Z,81.80
2018-01-28T21:34:49.745Z,81.90
2018-01-28T21:37:17.200Z,81.80
2018-01-28T21:39:44.636Z,81.80
2018-01-28T21:42:12.071Z,81.80
2018-01-28T21:44:40.293Z,81.80
2018-01-28T21:47:07.758Z,82.90
2018-01-28T21:49:35.204Z,81.80
2018-01-28T21:52:02.666Z,81.80
2018-01-28T21:54:30.107Z,81.80
2018-01-28T21:56:57.547Z,81.80
2018-01-28T21:59:25.785Z,81.80
2018-01-28T22:01:53.272Z,81.80
2018-01-28T22:04:21.473Z,81.80
2018-01-28T22:06:48.919Z,82.90
2018-01-28T22:09:35.179Z,81.80
2018-01-28T22:12:02.630Z,81.80
2018-01-28T22:14:30.061Z,81.90
2018-01-28T22:16:57.514Z,81.90
2018-01-28T22:19:24.969Z,82.90
2018-01-28T22:21:52.492Z,83.00
2018-01-28T22:24:20.690Z,81.90
2018-01-28T22:26:48.135Z,82.90
2018-01-28T22:29:15.571Z,81.90
2018-01-28T22:31:43.780Z,83.00
2018-01-28T22:34:11.214Z,82.90
2018-01-28T22:36:39.429Z,81.90
2018-01-28T22:39:06.878Z,81.90
2018-01-28T22:41:34.325Z,81.80
2018-01-28T22:44:01.757Z,81.80
2018-01-28T22:46:29.981Z,81.80
2018-01-28T22:48:57.416Z,81.80
2018-01-28T22:51:24.858Z,81.80
2018-01-28T22:53:52.308Z,81.80
2018-01-28T22:56:20.512Z,81.70
2018-01-28T22:58:47.971Z,81.70
2018-01-28T23:01:15.409Z,81.70
2018-01-28T23:03:42.850Z,81.70
2018-01-28T23:06:11.053Z,81.70
2018-01-28T23:08:38.497Z,81.70
2018-01-28T23:11:05.938Z,81.70
2018-01-28T23:13:34.148Z,81.80
2018-01-28T23:16:01.712Z,81.80
2018-01-28T23:18:29.169Z,81.80
2018-01-28T23:20:56.605Z,81.80
2018-01-28T23:23:24.052Z,81.80
2018-01-28T23:25:52.261Z,81.70
2018-01-28T23:28:19.700Z,81.80
2018-01-28T23:30:47.142Z,81.70
2018-01-28T23:33:15.358Z,81.80
2018-01-28T23:35:42.799Z,81.70
2018-01-28T23:38:10.246Z,81.70
2018-01-28T23:40:37.687Z,81.80
2018-01-28T23:43:05.903Z,81.80
2018-01-28T23:45:33.346Z,81.80
2018-01-28T23:48:00.793Z,81.90
2018-01-28T23:50:28.226Z,81.80
2018-01-28T23:52:56.440Z,81.80
2018-01-28T23:55:23.886Z,81.80
2018-01-28T23:57:51.341Z,81.80
